sensor_id;sensor_type;location;lat;lon;timestamp;pressure;altitude;pressure_sealevel;temperature;humidity
29371;BME280;16357;52.188;7.838;2024-03-22T00:01:39;101381.28;;;13.08;58.24
29371;BME280;16357;52.188;7.838;2024-03-22T00:04:05;101378.44;;;13.09;58.06
29371;BME280;16357;52.188;7.838;2024-03-22T00:06:30;101369.53;;;13.09;58.42
29371;BME280;16357;52.188;7.838;2024-03-22T00:08:56;101364.97;;;13.09;58.27
29371;BME280;16357;52.188;7.838;2024-03-22T00:11:21;101366.66;;;13.10;58.37
29371;BME280;16357;52.188;7.838;2024-03-22T00:13:47;101363.97;;;13.10;58.58
29371;BME280;16357;52.188;7.838;2024-03-22T00:16:12;101370.19;;;13.11;58.49
29371;BME280;16357;52.188;7.838;2024-03-22T00:18:38;101355.72;;;13.12;58.69
29371;BME280;16357;52.188;7.838;2024-03-22T00:21:03;101359.28;;;13.12;58.40
29371;BME280;16357;52.188;7.838;2024-03-22T00:23:29;101361.97;;;13.12;58.43
29371;BME280;16357;52.188;7.838;2024-03-22T00:25:56;101360.09;;;13.13;58.71
29371;BME280;16357;52.188;7.838;2024-03-22T00:28:21;101351.19;;;13.12;58.61
29371;BME280;16357;52.188;7.838;2024-03-22T00:30:47;101340.41;;;13.12;58.58
29371;BME280;16357;52.188;7.838;2024-03-22T00:33:12;101338.56;;;13.13;58.76
29371;BME280;16357;52.188;7.838;2024-03-22T00:35:38;101334.19;;;13.12;59.00
29371;BME280;16357;52.188;7.838;2024-03-22T00:38:03;101327.97;;;13.11;59.08
29371;BME280;16357;52.188;7.838;2024-03-22T00:40:29;101326.25;;;13.10;58.72
29371;BME280;16357;52.188;7.838;2024-03-22T00:42:54;101325.41;;;13.10;58.87
29371;BME280;16357;52.188;7.838;2024-03-22T00:45:20;101327.25;;;13.09;59.02
29371;BME280;16357;52.188;7.838;2024-03-22T00:47:45;101320.84;;;13.10;58.92
29371;BME280;16357;52.188;7.838;2024-03-22T00:50:11;101315.66;;;13.09;59.20
29371;BME280;16357;52.188;7.838;2024-03-22T00:52:38;101319.19;;;13.09;59.01
29371;BME280;16357;52.188;7.838;2024-03-22T00:55:04;101317.31;;;13.10;59.20
29371;BME280;16357;52.188;7.838;2024-03-22T00:57:30;101319.19;;;13.09;59.39
29371;BME280;16357;52.188;7.838;2024-03-22T00:59:56;101321.69;;;13.11;59.28
29371;BME280;16357;52.188;7.838;2024-03-22T01:02:22;101317.00;;;13.13;59.32
29371;BME280;16357;52.188;7.838;2024-03-22T01:04:48;101313.16;;;13.15;59.41
29371;BME280;16357;52.188;7.838;2024-03-22T01:07:13;101299.53;;;13.17;59.07
29371;BME280;16357;52.188;7.838;2024-03-22T01:09:39;101296.66;;;13.18;59.14
29371;BME280;16357;52.188;7.838;2024-03-22T01:12:05;101291.28;;;13.18;59.27
29371;BME280;16357;52.188;7.838;2024-03-22T01:14:31;101295.66;;;13.20;59.12
29371;BME280;16357;52.188;7.838;2024-03-22T01:16:57;101292.09;;;13.19;59.19
29371;BME280;16357;52.188;7.838;2024-03-22T01:19:22;101287.59;;;13.20;59.28
29371;BME280;16357;52.188;7.838;2024-03-22T01:21:49;101275.94;;;13.19;59.22
29371;BME280;16357;52.188;7.838;2024-03-22T01:24:14;101285.72;;;13.20;59.37
29371;BME280;16357;52.188;7.838;2024-03-22T01:26:40;101278.50;;;13.21;59.32
29371;BME280;16357;52.188;7.838;2024-03-22T01:29:05;101269.38;;;13.22;59.46
29371;BME280;16357;52.188;7.838;2024-03-22T01:31:31;101262.19;;;13.22;59.60
29371;BME280;16357;52.188;7.838;2024-03-22T01:33:56;101262.00;;;13.24;59.44
29371;BME280;16357;52.188;7.838;2024-03-22T01:36:22;101263.72;;;13.25;59.76
29371;BME280;16357;52.188;7.838;2024-03-22T01:38:47;101265.38;;;13.26;59.55
29371;BME280;16357;52.188;7.838;2024-03-22T01:41:13;101272.47;;;13.27;59.65
29371;BME280;16357;52.188;7.838;2024-03-22T01:43:38;101269.78;;;13.27;59.71
29371;BME280;16357;52.188;7.838;2024-03-22T01:46:04;101256.16;;;13.28;59.66
29371;BME280;16357;52.188;7.838;2024-03-22T01:48:34;101254.31;;;13.29;59.64
29371;BME280;16357;52.188;7.838;2024-03-22T01:50:59;101244.22;;;13.31;59.76
29371;BME280;16357;52.188;7.838;2024-03-22T01:53:25;101233.28;;;13.32;59.83
29371;BME280;16357;52.188;7.838;2024-03-22T01:55:51;101227.03;;;13.32;59.52
29371;BME280;16357;52.188;7.838;2024-03-22T01:58:16;101235.13;;;13.32;59.59
29371;BME280;16357;52.188;7.838;2024-03-22T02:00:43;101226.19;;;13.31;59.50
29371;BME280;16357;52.188;7.838;2024-03-22T02:03:09;101223.69;;;13.30;59.62
29371;BME280;16357;52.188;7.838;2024-03-22T02:05:34;101222.81;;;13.29;59.66
29371;BME280;16357;52.188;7.838;2024-03-22T02:07:59;101220.13;;;13.29;59.92
29371;BME280;16357;52.188;7.838;2024-03-22T02:10:25;101221.97;;;13.29;59.82
29371;BME280;16357;52.188;7.838;2024-03-22T02:12:51;101204.81;;;13.30;59.99
29371;BME280;16357;52.188;7.838;2024-03-22T02:15:16;101202.97;;;13.30;59.95
29371;BME280;16357;52.188;7.838;2024-03-22T02:17:42;101195.72;;;13.31;60.05
29371;BME280;16357;52.188;7.838;2024-03-22T02:20:07;101194.88;;;13.30;59.98
29371;BME280;16357;52.188;7.838;2024-03-22T02:22:33;101194.69;;;13.32;60.09
29371;BME280;16357;52.188;7.838;2024-03-22T02:24:59;101188.47;;;13.31;60.09
29371;BME280;16357;52.188;7.838;2024-03-22T02:27:25;101187.47;;;13.32;60.11
29371;BME280;16357;52.188;7.838;2024-03-22T02:29:51;101183.91;;;13.32;60.64
29371;BME280;16357;52.188;7.838;2024-03-22T02:32:16;101188.31;;;13.33;59.97
29371;BME280;16357;52.188;7.838;2024-03-22T02:34:41;101182.75;;;13.34;60.12
29371;BME280;16357;52.188;7.838;2024-03-22T02:37:07;101180.25;;;13.33;60.35
29371;BME280;16357;52.188;7.838;2024-03-22T02:39:32;101175.69;;;13.33;60.03
29371;BME280;16357;52.188;7.838;2024-03-22T02:41:58;101164.91;;;13.33;60.16
29371;BME280;16357;52.188;7.838;2024-03-22T02:44:23;101173.16;;;13.32;60.06
29371;BME280;16357;52.188;7.838;2024-03-22T02:46:49;101174.16;;;13.31;60.00
29371;BME280;16357;52.188;7.838;2024-03-22T02:49:14;101172.50;;;13.30;60.23
29371;BME280;16357;52.188;7.838;2024-03-22T02:51:40;101167.25;;;13.28;60.20
29371;BME280;16357;52.188;7.838;2024-03-22T02:54:05;101151.09;;;13.28;60.58
29371;BME280;16357;52.188;7.838;2024-03-22T02:56:31;101146.53;;;13.29;60.27
29371;BME280;16357;52.188;7.838;2024-03-22T02:58:56;101147.38;;;13.29;60.85
29371;BME280;16357;52.188;7.838;2024-03-22T03:01:22;101142.84;;;13.30;60.47
29371;BME280;16357;52.188;7.838;2024-03-22T03:03:48;101140.16;;;13.30;60.66
29371;BME280;16357;52.188;7.838;2024-03-22T03:06:13;101130.22;;;13.30;60.43
29371;BME280;16357;52.188;7.838;2024-03-22T03:08:40;101117.56;;;13.31;60.74
29371;BME280;16357;52.188;7.838;2024-03-22T03:11:05;101110.50;;;13.30;60.58
29371;BME280;16357;52.188;7.838;2024-03-22T03:13:31;101108.66;;;13.30;60.43
29371;BME280;16357;52.188;7.838;2024-03-22T03:15:57;101107.81;;;13.30;60.40
29371;BME280;16357;52.188;7.838;2024-03-22T03:18:22;101102.59;;;13.28;60.59
29371;BME280;16357;52.188;7.838;2024-03-22T03:20:48;101098.22;;;13.27;60.64
29371;BME280;16357;52.188;7.838;2024-03-22T03:23:13;101097.50;;;13.25;60.59
29371;BME280;16357;52.188;7.838;2024-03-22T03:25:39;101106.75;;;13.23;60.60
29371;BME280;16357;52.188;7.838;2024-03-22T03:28:05;101102.53;;;13.20;60.66
29371;BME280;16357;52.188;7.838;2024-03-22T03:30:34;101099.34;;;13.16;60.67
29371;BME280;16357;52.188;7.838;2024-03-22T03:32:59;101101.34;;;13.14;60.50
29371;BME280;16357;52.188;7.838;2024-03-22T03:35:25;101083.81;;;13.10;60.89
29371;BME280;16357;52.188;7.838;2024-03-22T03:37:51;101085.81;;;13.08;61.11
29371;BME280;16357;52.188;7.838;2024-03-22T03:40:16;101080.63;;;13.07;61.11
29371;BME280;16357;52.188;7.838;2024-03-22T03:42:42;101076.41;;;13.04;61.26
29371;BME280;16357;52.188;7.838;2024-03-22T03:45:07;101078.25;;;13.04;61.37
29371;BME280;16357;52.188;7.838;2024-03-22T03:47:33;101064.94;;;13.02;61.45
29371;BME280;16357;52.188;7.838;2024-03-22T03:49:58;101062.25;;;13.02;61.52
29371;BME280;16357;52.188;7.838;2024-03-22T03:52:24;101057.03;;;13.01;61.76
29371;BME280;16357;52.188;7.838;2024-03-22T03:54:50;101053.47;;;13.00;61.66
29371;BME280;16357;52.188;7.838;2024-03-22T03:57:15;101053.47;;;13.00;61.49
29371;BME280;16357;52.188;7.838;2024-03-22T03:59:41;101059.88;;;12.99;62.07
29371;BME280;16357;52.188;7.838;2024-03-22T04:02:06;101044.75;;;12.98;62.02
29371;BME280;16357;52.188;7.838;2024-03-22T04:04:32;101047.25;;;13.00;62.10
29371;BME280;16357;52.188;7.838;2024-03-22T04:06:57;101044.56;;;13.00;62.31
29371;BME280;16357;52.188;7.838;2024-03-22T04:09:23;101041.72;;;13.01;62.18
29371;BME280;16357;52.188;7.838;2024-03-22T04:11:48;101041.53;;;13.03;62.27
29371;BME280;16357;52.188;7.838;2024-03-22T04:14:14;101034.28;;;13.03;62.44
29371;BME280;16357;52.188;7.838;2024-03-22T04:16:40;101037.66;;;13.05;62.39
29371;BME280;16357;52.188;7.838;2024-03-22T04:19:06;101030.44;;;13.06;62.70
29371;BME280;16357;52.188;7.838;2024-03-22T04:21:31;101026.56;;;13.08;62.68
29371;BME280;16357;52.188;7.838;2024-03-22T04:23:57;101019.50;;;13.07;62.54
29371;BME280;16357;52.188;7.838;2024-03-22T04:26:22;101013.97;;;13.09;62.71
29371;BME280;16357;52.188;7.838;2024-03-22T04:28:48;101004.84;;;13.10;62.69
29371;BME280;16357;52.188;7.838;2024-03-22T04:31:14;101006.53;;;13.11;62.68
29371;BME280;16357;52.188;7.838;2024-03-22T04:33:41;101004.72;;;13.11;62.73
29371;BME280;16357;52.188;7.838;2024-03-22T04:36:07;101006.38;;;13.12;62.93
29371;BME280;16357;52.188;7.838;2024-03-22T04:38:34;101001.16;;;13.11;62.86
29371;BME280;16357;52.188;7.838;2024-03-22T04:41:00;100988.69;;;13.10;62.95
29371;BME280;16357;52.188;7.838;2024-03-22T04:43:27;101001.00;;;13.12;62.95
29371;BME280;16357;52.188;7.838;2024-03-22T04:45:53;100993.06;;;13.11;63.03
29371;BME280;16357;52.188;7.838;2024-03-22T04:48:22;100989.19;;;13.13;62.89
29371;BME280;16357;52.188;7.838;2024-03-22T04:50:49;100992.91;;;13.12;63.16
29371;BME280;16357;52.188;7.838;2024-03-22T04:53:16;100977.78;;;13.11;63.40
29371;BME280;16357;52.188;7.838;2024-03-22T04:55:45;100975.72;;;13.13;63.51
29371;BME280;16357;52.188;7.838;2024-03-22T04:58:15;100964.94;;;13.13;63.36
29371;BME280;16357;52.188;7.838;2024-03-22T05:00:42;100959.56;;;13.13;63.57
29371;BME280;16357;52.188;7.838;2024-03-22T05:03:07;100963.13;;;13.14;63.63
29371;BME280;16357;52.188;7.838;2024-03-22T05:05:34;100962.94;;;13.15;63.59
29371;BME280;16357;52.188;7.838;2024-03-22T05:08:00;100974.56;;;13.16;63.71
29371;BME280;16357;52.188;7.838;2024-03-22T05:10:25;100976.25;;;13.17;63.99
29371;BME280;16357;52.188;7.838;2024-03-22T05:12:51;100991.25;;;13.20;63.88
29371;BME280;16357;52.188;7.838;2024-03-22T05:15:16;100991.88;;;13.22;63.84
29371;BME280;16357;52.188;7.838;2024-03-22T05:17:42;100982.63;;;13.24;63.95
29371;BME280;16357;52.188;7.838;2024-03-22T05:20:09;100979.78;;;13.26;63.98
29371;BME280;16357;52.188;7.838;2024-03-22T05:22:39;100985.69;;;13.29;63.72
29371;BME280;16357;52.188;7.838;2024-03-22T05:25:05;100981.00;;;13.31;63.98
29371;BME280;16357;52.188;7.838;2024-03-22T05:27:32;100966.53;;;13.32;64.04
29371;BME280;16357;52.188;7.838;2024-03-22T05:29:58;100970.75;;;13.35;63.94
29371;BME280;16357;52.188;7.838;2024-03-22T05:32:25;100978.47;;;13.38;64.18
29371;BME280;16357;52.188;7.838;2024-03-22T05:34:50;100981.19;;;13.38;64.04
29371;BME280;16357;52.188;7.838;2024-03-22T05:37:16;100972.75;;;13.41;64.10
29371;BME280;16357;52.188;7.838;2024-03-22T05:39:42;100979.66;;;13.44;63.90
29371;BME280;16357;52.188;7.838;2024-03-22T05:42:08;100974.06;;;13.45;64.08
29371;BME280;16357;52.188;7.838;2024-03-22T05:44:33;100961.97;;;13.49;64.17
29371;BME280;16357;52.188;7.838;2024-03-22T05:46:59;100966.31;;;13.50;63.96
29371;BME280;16357;52.188;7.838;2024-03-22T05:49:24;100966.00;;;13.53;63.80
29371;BME280;16357;52.188;7.838;2024-03-22T05:51:50;100958.56;;;13.55;63.65
29371;BME280;16357;52.188;7.838;2024-03-22T05:54:15;100957.38;;;13.58;63.96
29371;BME280;16357;52.188;7.838;2024-03-22T05:56:41;100958.06;;;13.60;64.08
29371;BME280;16357;52.188;7.838;2024-03-22T05:59:07;100955.03;;;13.63;64.09
29371;BME280;16357;52.188;7.838;2024-03-22T06:01:32;100949.47;;;13.65;63.96
29371;BME280;16357;52.188;7.838;2024-03-22T06:03:58;100941.03;;;13.68;64.15
29371;BME280;16357;52.188;7.838;2024-03-22T06:06:23;100951.47;;;13.71;63.92
29371;BME280;16357;52.188;7.838;2024-03-22T06:08:51;100939.69;;;13.72;64.06
29371;BME280;16357;52.188;7.838;2024-03-22T06:11:22;100942.88;;;13.75;63.84
29371;BME280;16357;52.188;7.838;2024-03-22T06:13:48;100939.16;;;13.76;64.04
29371;BME280;16357;52.188;7.838;2024-03-22T06:16:14;100939.81;;;13.78;63.96
29371;BME280;16357;52.188;7.838;2024-03-22T06:18:40;100941.34;;;13.81;64.05
29371;BME280;16357;52.188;7.838;2024-03-22T06:21:06;100943.88;;;13.82;64.11
29371;BME280;16357;52.188;7.838;2024-03-22T06:23:32;100945.53;;;13.83;63.96
29371;BME280;16357;52.188;7.838;2024-03-22T06:25:58;100955.16;;;13.86;63.86
29371;BME280;16357;52.188;7.838;2024-03-22T06:28:27;100954.78;;;13.89;63.68
29371;BME280;16357;52.188;7.838;2024-03-22T06:30:53;100952.78;;;13.91;63.95
29371;BME280;16357;52.188;7.838;2024-03-22T06:33:19;100951.75;;;13.92;63.93
29371;BME280;16357;52.188;7.838;2024-03-22T06:35:45;100944.16;;;13.96;63.92
29371;BME280;16357;52.188;7.838;2024-03-22T06:38:11;100942.97;;;13.98;63.84
29371;BME280;16357;52.188;7.838;2024-03-22T06:40:37;100931.00;;;14.01;64.13
29371;BME280;16357;52.188;7.838;2024-03-22T06:43:03;100936.88;;;14.04;63.92
29371;BME280;16357;52.188;7.838;2024-03-22T06:45:28;100930.31;;;14.07;63.92
29371;BME280;16357;52.188;7.838;2024-03-22T06:47:54;100923.53;;;14.11;63.80
29371;BME280;16357;52.188;7.838;2024-03-22T06:50:20;100920.50;;;14.14;63.92
29371;BME280;16357;52.188;7.838;2024-03-22T06:52:55;100922.66;;;14.19;63.61
29371;BME280;16357;52.188;7.838;2024-03-22T06:55:21;100935.81;;;14.22;63.64
29371;BME280;16357;52.188;7.838;2024-03-22T06:57:47;100921.97;;;14.25;63.67
29371;BME280;16357;52.188;7.838;2024-03-22T07:00:14;100922.44;;;14.28;63.56
29371;BME280;16357;52.188;7.838;2024-03-22T07:02:39;100924.63;;;14.33;63.62
29371;BME280;16357;52.188;7.838;2024-03-22T07:05:08;100921.41;;;14.38;63.29
29371;BME280;16357;52.188;7.838;2024-03-22T07:07:35;100922.03;;;14.40;63.54
29371;BME280;16357;52.188;7.838;2024-03-22T07:10:01;100920.69;;;14.44;63.46
29371;BME280;16357;52.188;7.838;2024-03-22T07:12:26;100917.63;;;14.47;63.22
29371;BME280;16357;52.188;7.838;2024-03-22T07:14:52;100905.63;;;14.49;63.06
29371;BME280;16357;52.188;7.838;2024-03-22T07:17:18;100910.53;;;14.54;63.32
29371;BME280;16357;52.188;7.838;2024-03-22T07:19:51;100916.41;;;14.58;63.09
29371;BME280;16357;52.188;7.838;2024-03-22T07:22:18;100909.66;;;14.62;62.96
29371;BME280;16357;52.188;7.838;2024-03-22T07:24:44;100908.25;;;14.66;62.71
29371;BME280;16357;52.188;7.838;2024-03-22T07:27:10;100905.84;;;14.71;62.75
29371;BME280;16357;52.188;7.838;2024-03-22T07:29:36;100911.75;;;14.75;62.38
29371;BME280;16357;52.188;7.838;2024-03-22T07:32:01;100906.81;;;14.78;62.54
29371;BME280;16357;52.188;7.838;2024-03-22T07:34:27;100903.41;;;14.84;61.89
29371;BME280;16357;52.188;7.838;2024-03-22T07:36:53;100896.63;;;14.88;62.23
29371;BME280;16357;52.188;7.838;2024-03-22T07:39:18;100905.88;;;14.94;62.39
29371;BME280;16357;52.188;7.838;2024-03-22T07:41:44;100911.72;;;14.98;62.00
29371;BME280;16357;52.188;7.838;2024-03-22T07:44:09;100902.25;;;15.02;61.98
29371;BME280;16357;52.188;7.838;2024-03-22T07:46:36;100902.72;;;15.05;61.73
29371;BME280;16357;52.188;7.838;2024-03-22T07:49:04;100900.31;;;15.10;61.53
29371;BME280;16357;52.188;7.838;2024-03-22T07:51:30;100908.25;;;15.12;61.22
29371;BME280;16357;52.188;7.838;2024-03-22T07:53:56;100898.94;;;15.14;60.94
29371;BME280;16357;52.188;7.838;2024-03-22T07:56:21;100904.16;;;15.16;60.42
29371;BME280;16357;52.188;7.838;2024-03-22T07:58:47;100899.59;;;15.17;60.56
29371;BME280;16357;52.188;7.838;2024-03-22T08:01:12;100905.00;;;15.17;60.55
29371;BME280;16357;52.188;7.838;2024-03-22T08:03:38;100895.88;;;15.18;60.61
29371;BME280;16357;52.188;7.838;2024-03-22T08:06:04;100895.66;;;15.19;60.59
29371;BME280;16357;52.188;7.838;2024-03-22T08:08:29;100893.63;;;15.21;60.67
29371;BME280;16357;52.188;7.838;2024-03-22T08:10:55;100888.88;;;15.23;60.39
29371;BME280;16357;52.188;7.838;2024-03-22T08:13:20;100885.81;;;15.26;60.48
29371;BME280;16357;52.188;7.838;2024-03-22T08:15:46;100893.56;;;15.29;60.29
29371;BME280;16357;52.188;7.838;2024-03-22T08:18:11;100892.16;;;15.33;60.50
29371;BME280;16357;52.188;7.838;2024-03-22T08:20:37;100892.47;;;15.39;60.07
29371;BME280;16357;52.188;7.838;2024-03-22T08:23:05;100889.22;;;15.43;60.11
29371;BME280;16357;52.188;7.838;2024-03-22T08:25:30;100900.13;;;15.50;60.17
29371;BME280;16357;52.188;7.838;2024-03-22T08:27:57;100886.03;;;15.54;59.75
29371;BME280;16357;52.188;7.838;2024-03-22T08:30:24;100886.13;;;15.61;59.53
29371;BME280;16357;52.188;7.838;2024-03-22T08:32:50;100878.50;;;15.65;58.79
29371;BME280;16357;52.188;7.838;2024-03-22T08:35:16;100870.00;;;15.68;58.97
29371;BME280;16357;52.188;7.838;2024-03-22T08:37:41;100873.41;;;15.70;58.81
29371;BME280;16357;52.188;7.838;2024-03-22T08:40:07;100865.09;;;15.71;58.89
29371;BME280;16357;52.188;7.838;2024-03-22T08:42:32;100864.06;;;15.72;58.63
29371;BME280;16357;52.188;7.838;2024-03-22T08:44:58;100867.63;;;15.73;58.18
29371;BME280;16357;52.188;7.838;2024-03-22T08:47:24;100858.66;;;15.72;57.94
29371;BME280;16357;52.188;7.838;2024-03-22T08:49:49;100861.53;;;15.71;57.65
29371;BME280;16357;52.188;7.838;2024-03-22T08:52:15;100851.06;;;15.68;57.44
29371;BME280;16357;52.188;7.838;2024-03-22T08:54:41;100847.91;;;15.64;57.02
29371;BME280;16357;52.188;7.838;2024-03-22T08:57:06;100852.00;;;15.60;57.44
29371;BME280;16357;52.188;7.838;2024-03-22T08:59:32;100852.84;;;15.61;57.74
29371;BME280;16357;52.188;7.838;2024-03-22T09:01:57;100850.69;;;15.56;57.89
29371;BME280;16357;52.188;7.838;2024-03-22T09:04:24;100854.44;;;15.55;57.57
29371;BME280;16357;52.188;7.838;2024-03-22T09:06:50;100842.78;;;15.54;57.23
29371;BME280;16357;52.188;7.838;2024-03-22T09:09:16;100843.63;;;15.55;57.34
29371;BME280;16357;52.188;7.838;2024-03-22T09:11:42;100847.34;;;15.54;57.25
29371;BME280;16357;52.188;7.838;2024-03-22T09:14:08;100842.56;;;15.56;57.54
29371;BME280;16357;52.188;7.838;2024-03-22T09:16:33;100852.00;;;15.60;57.95
29371;BME280;16357;52.188;7.838;2024-03-22T09:18:59;100843.34;;;15.65;57.30
29371;BME280;16357;52.188;7.838;2024-03-22T09:21:25;100839.72;;;15.72;57.42
29371;BME280;16357;52.188;7.838;2024-03-22T09:23:50;100835.22;;;15.79;56.78
29371;BME280;16357;52.188;7.838;2024-03-22T09:26:16;100823.69;;;15.86;56.55
29371;BME280;16357;52.188;7.838;2024-03-22T09:28:41;100819.38;;;15.91;55.99
29371;BME280;16357;52.188;7.838;2024-03-22T09:31:07;100823.19;;;15.97;56.20
29371;BME280;16357;52.188;7.838;2024-03-22T09:33:34;100832.22;;;16.04;55.87
29371;BME280;16357;52.188;7.838;2024-03-22T09:35:59;100831.84;;;16.07;55.69
29371;BME280;16357;52.188;7.838;2024-03-22T09:38:25;100831.06;;;16.13;55.74
29371;BME280;16357;52.188;7.838;2024-03-22T09:40:50;100824.91;;;16.19;55.42
29371;BME280;16357;52.188;7.838;2024-03-22T09:43:23;100820.78;;;16.23;54.99
29371;BME280;16357;52.188;7.838;2024-03-22T09:45:49;100829.16;;;16.29;55.12
29371;BME280;16357;52.188;7.838;2024-03-22T09:48:18;100827.09;;;16.31;54.41
29371;BME280;16357;52.188;7.838;2024-03-22T09:50:46;100830.66;;;16.31;54.00
29371;BME280;16357;52.188;7.838;2024-03-22T09:53:20;100831.88;;;16.29;53.97
29371;BME280;16357;52.188;7.838;2024-03-22T09:55:47;100828.88;;;16.23;53.59
29371;BME280;16357;52.188;7.838;2024-03-22T09:58:13;100820.50;;;16.18;53.10
29371;BME280;16357;52.188;7.838;2024-03-22T10:00:39;100834.81;;;16.12;53.70
29371;BME280;16357;52.188;7.838;2024-03-22T10:03:04;100818.47;;;16.06;53.76
29371;BME280;16357;52.188;7.838;2024-03-22T10:05:31;100823.63;;;16.00;54.00
29371;BME280;16357;52.188;7.838;2024-03-22T10:07:57;100814.22;;;15.96;54.11
29371;BME280;16357;52.188;7.838;2024-03-22T10:10:23;100827.28;;;15.93;54.47
29371;BME280;16357;52.188;7.838;2024-03-22T10:12:48;100819.53;;;15.90;54.26
29371;BME280;16357;52.188;7.838;2024-03-22T10:15:14;100825.34;;;15.87;54.49
29371;BME280;16357;52.188;7.838;2024-03-22T10:17:39;100828.44;;;15.84;54.07
29371;BME280;16357;52.188;7.838;2024-03-22T10:20:06;100828.81;;;15.80;54.24
29371;BME280;16357;52.188;7.838;2024-03-22T10:22:59;100831.03;;;15.77;54.52
29371;BME280;16357;52.188;7.838;2024-03-22T10:25:26;100831.41;;;15.74;54.25
29371;BME280;16357;52.188;7.838;2024-03-22T10:27:56;100829.28;;;15.69;54.82
29371;BME280;16357;52.188;7.838;2024-03-22T10:30:23;100826.28;;;15.64;54.61
29371;BME280;16357;52.188;7.838;2024-03-22T10:32:48;100841.19;;;15.60;54.78
29371;BME280;16357;52.188;7.838;2024-03-22T10:35:15;100825.53;;;15.55;54.83
29371;BME280;16357;52.188;7.838;2024-03-22T10:37:42;100827.75;;;15.52;54.84
29371;BME280;16357;52.188;7.838;2024-03-22T10:40:08;100838.31;;;15.47;54.97
29371;BME280;16357;52.188;7.838;2024-03-22T10:42:40;100826.00;;;15.44;55.10
29371;BME280;16357;52.188;7.838;2024-03-22T10:45:08;100827.59;;;15.39;55.26
29371;BME280;16357;52.188;7.838;2024-03-22T10:47:35;100817.16;;;15.35;55.81
29371;BME280;16357;52.188;7.838;2024-03-22T10:50:09;100825.44;;;15.34;55.96
29371;BME280;16357;52.188;7.838;2024-03-22T10:52:46;100830.00;;;15.33;56.10
29371;BME280;16357;52.188;7.838;2024-03-22T10:55:18;100834.75;;;15.31;56.28
29371;BME280;16357;52.188;7.838;2024-03-22T10:57:44;100826.19;;;15.28;56.14
29371;BME280;16357;52.188;7.838;2024-03-22T11:00:10;100841.28;;;15.22;56.17
29371;BME280;16357;52.188;7.838;2024-03-22T11:02:37;100849.09;;;15.17;56.55
29371;BME280;16357;52.188;7.838;2024-03-22T11:05:04;100831.56;;;15.13;56.99
29371;BME280;16357;52.188;7.838;2024-03-22T11:07:30;100830.44;;;15.07;57.38
29371;BME280;16357;52.188;7.838;2024-03-22T11:09:56;100844.47;;;15.03;57.89
29371;BME280;16357;52.188;7.838;2024-03-22T11:12:26;100842.34;;;14.98;58.23
29371;BME280;16357;52.188;7.838;2024-03-22T11:14:55;100834.97;;;14.92;58.40
29371;BME280;16357;52.188;7.838;2024-03-22T11:17:20;100846.31;;;14.87;59.02
29371;BME280;16357;52.188;7.838;2024-03-22T11:19:53;100833.38;;;14.83;58.98
29371;BME280;16357;52.188;7.838;2024-03-22T11:22:18;100835.94;;;14.76;59.73
29371;BME280;16357;52.188;7.838;2024-03-22T11:24:44;100831.28;;;14.70;59.88
29371;BME280;16357;52.188;7.838;2024-03-22T11:27:10;100825.56;;;14.65;60.19
29371;BME280;16357;52.188;7.838;2024-03-22T11:29:39;100821.75;;;14.59;60.21
29371;BME280;16357;52.188;7.838;2024-03-22T11:32:11;100823.78;;;14.57;60.12
29371;BME280;16357;52.188;7.838;2024-03-22T11:34:38;100824.47;;;14.51;60.70
29371;BME280;16357;52.188;7.838;2024-03-22T11:37:05;100819.41;;;14.48;60.92
29371;BME280;16357;52.188;7.838;2024-03-22T11:39:33;100817.06;;;14.45;61.36
29371;BME280;16357;52.188;7.838;2024-03-22T11:42:02;100817.06;;;14.45;61.02
29371;BME280;16357;52.188;7.838;2024-03-22T11:44:28;100822.66;;;14.43;61.06
29371;BME280;16357;52.188;7.838;2024-03-22T11:46:54;100815.56;;;14.42;61.19
29371;BME280;16357;52.188;7.838;2024-03-22T11:49:19;100812.25;;;14.40;61.39
29371;BME280;16357;52.188;7.838;2024-03-22T11:51:45;100813.06;;;14.41;61.17
29371;BME280;16357;52.188;7.838;2024-03-22T11:54:11;100809.53;;;14.40;61.50
29371;BME280;16357;52.188;7.838;2024-03-22T11:56:36;100817.63;;;14.40;61.34
29371;BME280;16357;52.188;7.838;2024-03-22T11:59:02;100812.25;;;14.40;61.84
29371;BME280;16357;52.188;7.838;2024-03-22T12:01:29;100811.88;;;14.43;61.81
29371;BME280;16357;52.188;7.838;2024-03-22T12:03:55;100793.97;;;14.42;61.44
29371;BME280;16357;52.188;7.838;2024-03-22T12:06:21;100809.19;;;14.43;61.81
29371;BME280;16357;52.188;7.838;2024-03-22T12:08:47;100797.34;;;14.44;61.37
29371;BME280;16357;52.188;7.838;2024-03-22T12:11:13;100803.56;;;14.45;61.25
29371;BME280;16357;52.188;7.838;2024-03-22T12:13:39;100794.66;;;14.44;61.46
29371;BME280;16357;52.188;7.838;2024-03-22T12:16:05;100801.25;;;14.42;61.40
29371;BME280;16357;52.188;7.838;2024-03-22T12:18:31;100790.66;;;14.40;61.38
29371;BME280;16357;52.188;7.838;2024-03-22T12:20:57;100790.81;;;14.39;61.56
29371;BME280;16357;52.188;7.838;2024-03-22T12:23:22;100777.47;;;14.37;61.33
29371;BME280;16357;52.188;7.838;2024-03-22T12:25:50;100776.84;;;14.35;61.35
29371;BME280;16357;52.188;7.838;2024-03-22T12:28:16;100772.44;;;14.34;61.97
29371;BME280;16357;52.188;7.838;2024-03-22T12:30:42;100778.88;;;14.33;61.56
29371;BME280;16357;52.188;7.838;2024-03-22T12:33:08;100765.38;;;14.33;61.52
29371;BME280;16357;52.188;7.838;2024-03-22T12:35:40;100764.34;;;14.34;61.56
29371;BME280;16357;52.188;7.838;2024-03-22T12:38:05;100761.66;;;14.34;61.83
29371;BME280;16357;52.188;7.838;2024-03-22T12:40:31;100759.78;;;14.35;61.60
29371;BME280;16357;52.188;7.838;2024-03-22T12:42:58;100765.03;;;14.36;61.52
29371;BME280;16357;52.188;7.838;2024-03-22T12:45:24;100756.75;;;14.38;61.43